Time;durP1;ratioP1;P1;durP2;ratioP2;P2;SDS_P1;SDS_P2;PMS_P1;PMS_P2;Temp;Humidity;BMP_temperature;BMP_pressure;BME280_temperature;BME280_humidity;BME280_pressure;Samples;Min_cycle;Max_cycle;Signal;HPM_P1;HPM_P2
2022/01/30 00:01:56;;;;;;;5.75;1.80;;;18.40;61.60;;;;;;6255749;22;20144;-80
2022/01/30 00:04:22;;;;;;;5.15;2.05;;;18.40;61.70;;;;;;6309059;22;20578;-83
2022/01/30 00:06:48;;;;;;;6.25;2.30;;;18.40;61.60;;;;;;6255763;22;20175;-84
2022/01/30 00:09:20;;;;;;;5.35;1.92;;;18.40;61.70;;;;;;6281495;22;20143;-82
2022/01/30 00:11:51;;;;;;;6.00;2.33;;;18.40;61.60;;;;;;6282554;22;20136;-80
2022/01/30 00:14:19;;;;;;;5.20;1.90;;;18.40;61.80;;;;;;6257726;22;20510;-81
2022/01/30 00:16:45;;;;;;;5.05;1.83;;;18.40;61.60;;;;;;6255929;22;20539;-81
2022/01/30 00:19:22;;;;;;;5.43;1.90;;;18.30;61.40;;;;;;6281261;22;20186;-81
2022/01/30 00:21:59;;;;;;;4.72;1.88;;;18.40;61.60;;;;;;6257899;22;20227;-82
2022/01/30 00:24:41;;;;;;;4.85;1.60;;;18.30;61.60;;;;;;6283397;22;20128;-80
2022/01/30 00:27:15;;;;;;;4.90;1.77;;;18.30;61.60;;;;;;6284461;22;20170;-81
2022/01/30 00:29:42;;;;;;;6.93;2.10;;;18.30;61.50;;;;;;6208817;22;20165;-82
2022/01/30 00:32:09;;;;;;;4.75;1.85;;;18.30;61.80;;;;;;6229276;22;20147;-80
2022/01/30 00:34:36;;;;;;;7.35;2.10;;;18.30;61.80;;;;;;6254641;22;20184;-82
2022/01/30 00:37:03;;;;;;;4.82;1.80;;;18.30;61.80;;;;;;6254414;22;20159;-84
2022/01/30 00:39:31;;;;;;;5.85;1.90;;;18.30;61.70;;;;;;6254472;22;20201;-81
2022/01/30 00:41:58;;;;;;;4.38;1.92;;;18.30;61.70;;;;;;6229115;22;20154;-81
2022/01/30 00:44:25;;;;;;;3.80;1.60;;;18.30;61.70;;;;;;6204025;22;20579;-81
2022/01/30 00:46:55;;;;;;;5.22;1.70;;;18.30;61.60;;;;;;6254492;22;20258;-81
2022/01/30 00:49:20;;;;;;;4.57;1.58;;;18.30;61.80;;;;;;6230676;22;20144;-81
2022/01/30 00:51:46;;;;;;;6.00;1.88;;;18.30;61.80;;;;;;6255192;22;20182;-84
2022/01/30 00:54:11;;;;;;;3.78;1.70;;;18.30;61.90;;;;;;6308029;22;20144;-83
2022/01/30 00:56:37;;;;;;;5.78;1.60;;;18.30;61.90;;;;;;6255437;22;20136;-84
2022/01/30 00:59:04;;;;;;;4.63;1.60;;;18.20;61.90;;;;;;6255554;22;20124;-81
2022/01/30 01:01:32;;;;;;;6.13;1.95;;;18.30;62.00;;;;;;6203798;22;20199;-86
2022/01/30 01:03:58;;;;;;;7.57;2.03;;;18.20;61.80;;;;;;6255010;22;20155;-82
2022/01/30 01:06:25;;;;;;;4.47;1.63;;;18.20;62.00;;;;;;6308154;22;20598;-84
2022/01/30 01:08:58;;;;;;;5.63;1.83;;;18.20;61.60;;;;;;6280821;22;20155;-83
2022/01/30 01:11:55;;;;;;;6.57;1.80;;;18.20;61.80;;;;;;6280617;22;20561;-81
2022/01/30 01:24:52;;;;;;;8.13;1.95;;;18.20;62.00;;;;;;6261910;22;20147;-82
2022/01/30 01:27:18;;;;;;;3.90;1.70;;;18.20;61.70;;;;;;6280218;22;20171;-83
2022/01/30 01:29:43;;;;;;;4.63;1.70;;;18.10;61.70;;;;;;6255106;22;20135;-80
2022/01/30 01:32:09;;;;;;;5.50;1.70;;;18.30;61.90;;;;;;6230313;22;20140;-83
2022/01/30 01:34:38;;;;;;;3.88;1.58;;;18.30;61.60;;;;;;6229808;22;20144;-84
2022/01/30 01:37:06;;;;;;;3.75;1.63;;;18.20;61.80;;;;;;6281712;22;20655;-83
2022/01/30 01:39:32;;;;;;;4.88;1.85;;;18.20;61.80;;;;;;6230780;22;20197;-81
2022/01/30 01:41:57;;;;;;;4.75;1.77;;;18.20;62.00;;;;;;6280510;22;20140;-84
2022/01/30 01:44:38;;;;;;;4.88;1.83;;;18.20;61.90;;;;;;6254867;22;20140;-84
2022/01/30 01:47:04;;;;;;;6.00;2.03;;;18.20;61.60;;;;;;6260650;22;20209;-83
2022/01/30 01:49:33;;;;;;;4.53;1.73;;;18.20;61.80;;;;;;6255423;22;20139;-83
2022/01/30 01:52:18;;;;;;;7.20;2.00;;;18.20;62.20;;;;;;6204621;22;20163;-81
2022/01/30 01:54:46;;;;;;;4.35;1.48;;;18.10;61.90;;;;;;6241574;22;20223;-83
2022/01/30 01:57:13;;;;;;;5.72;1.77;;;18.10;62.10;;;;;;6231442;22;20205;-81
2022/01/30 01:59:39;;;;;;;3.85;1.60;;;18.10;61.80;;;;;;6230714;22;20155;-83
2022/01/30 02:02:05;;;;;;;3.17;1.48;;;18.20;61.80;;;;;;6256689;22;20553;-83
2022/01/30 02:04:31;;;;;;;4.57;1.60;;;18.20;61.50;;;;;;6257061;22;20203;-83
2022/01/30 02:07:20;;;;;;;7.40;1.60;;;18.20;61.80;;;;;;6257826;22;20175;-83
2022/01/30 02:09:44;;;;;;;5.28;1.60;;;18.20;61.80;;;;;;6286607;22;20155;-80
2022/01/30 02:12:17;;;;;;;4.53;1.55;;;18.10;61.80;;;;;;6282876;22;20138;-81
2022/01/30 02:25:37;;;;;;;4.32;1.98;;;18.20;61.50;;;;;;6285524;22;20132;-83
2022/01/30 02:28:09;;;;;;;3.90;1.45;;;18.20;61.60;;;;;;6285158;22;20139;-81
2022/01/30 02:30:37;;;;;;;5.70;1.60;;;18.20;61.80;;;;;;6259338;22;20124;-81
2022/01/30 02:33:03;;;;;;;5.53;1.65;;;18.20;61.80;;;;;;6282777;22;20544;-82
2022/01/30 02:35:29;;;;;;;5.05;1.92;;;18.10;61.60;;;;;;6309915;22;20211;-82
2022/01/30 02:37:57;;;;;;;5.85;1.77;;;18.10;61.80;;;;;;6257094;22;20167;-81
2022/01/30 02:40:23;;;;;;;3.83;1.70;;;18.10;61.70;;;;;;6257070;22;20144;-81
2022/01/30 02:42:51;;;;;;;3.85;1.40;;;18.10;61.80;;;;;;6256684;22;20262;-83
2022/01/30 02:45:19;;;;;;;4.15;1.50;;;18.10;61.50;;;;;;6233694;22;20144;-82
2022/01/30 02:48:15;;;;;;;3.70;1.50;;;18.10;61.80;;;;;;6232522;22;20171;-83
2022/01/30 02:51:09;;;;;;;2.65;1.15;;;18.10;61.70;;;;;;6286491;22;20179;-84
2022/01/30 02:53:16;;;;;;;3.20;1.65;;;18.10;61.50;;;;;;6265070;22;20155;-83
2022/01/30 02:55:42;;;;;;;6.88;1.80;;;18.10;61.60;;;;;;6282357;22;20125;-83
2022/01/30 02:58:07;;;;;;;3.20;1.40;;;18.10;61.50;;;;;;6256440;22;20156;-81
2022/01/30 03:00:33;;;;;;;4.32;1.60;;;18.10;61.80;;;;;;6308718;22;20627;-81
2022/01/30 03:02:58;;;;;;;4.70;1.55;;;18.10;61.80;;;;;;6282074;22;20140;-80
2022/01/30 03:05:24;;;;;;;5.55;1.63;;;18.10;61.60;;;;;;6256512;22;20136;-82
2022/01/30 03:07:52;;;;;;;4.95;1.60;;;18.10;61.90;;;;;;6256311;22;20590;-81
2022/01/30 03:10:17;;;;;;;3.53;1.48;;;18.10;61.60;;;;;;6281695;22;20595;-83
2022/01/30 03:12:43;;;;;;;5.30;1.63;;;18.10;61.50;;;;;;6281769;22;20128;-83
2022/01/30 03:15:09;;;;;;;3.10;1.50;;;18.00;61.10;;;;;;6256119;22;20128;-81
2022/01/30 03:17:34;;;;;;;5.53;1.80;;;18.10;61.40;;;;;;6282159;22;20128;-84
2022/01/30 03:20:00;;;;;;;5.22;1.63;;;18.10;61.50;;;;;;6282141;22;20185;-83
2022/01/30 03:22:26;;;;;;;4.47;1.42;;;18.10;61.40;;;;;;6256202;22;20223;-81
2022/01/30 03:24:52;;;;;;;5.03;1.60;;;18.10;61.40;;;;;;6256341;22;20466;-83
2022/01/30 03:27:18;;;;;;;3.55;1.38;;;18.10;61.40;;;;;;6309332;22;20247;-83
2022/01/30 03:29:51;;;;;;;5.60;1.50;;;18.10;61.00;;;;;;6256501;22;20203;-83
2022/01/30 03:32:16;;;;;;;4.57;1.60;;;18.10;61.00;;;;;;6257758;22;20174;-83
2022/01/30 03:34:42;;;;;;;3.75;1.40;;;18.10;61.30;;;;;;6256779;22;20148;-84
2022/01/30 03:37:08;;;;;;;4.80;1.52;;;18.10;61.20;;;;;;6231039;22;20502;-81
2022/01/30 03:39:33;;;;;;;4.82;1.70;;;18.10;61.40;;;;;;6281778;22;20195;-82
2022/01/30 03:41:59;;;;;;;4.03;1.45;;;18.10;61.30;;;;;;6256780;22;20215;-82
2022/01/30 03:44:25;;;;;;;4.13;1.70;;;18.00;60.80;;;;;;6230499;22;20148;-81
2022/01/30 03:46:50;;;;;;;6.18;1.48;;;18.20;61.20;;;;;;6281288;22;20168;-81
2022/01/30 03:49:16;;;;;;;3.88;1.48;;;18.00;61.20;;;;;;6281552;22;20139;-82
2022/01/30 03:51:41;;;;;;;3.60;1.50;;;18.10;61.20;;;;;;6230843;22;20482;-83
2022/01/30 03:54:07;;;;;;;5.65;1.55;;;18.10;61.20;;;;;;6308581;22;20500;-81
2022/01/30 03:56:34;;;;;;;2.90;1.50;;;18.10;61.00;;;;;;6230431;22;20204;-83
2022/01/30 03:59:00;;;;;;;4.68;1.50;;;18.10;61.20;;;;;;6229738;22;20156;-83
2022/01/30 04:01:27;;;;;;;4.97;1.60;;;18.10;61.10;;;;;;6204221;22;20539;-84
2022/01/30 04:03:54;;;;;;;5.38;1.83;;;18.10;61.10;;;;;;6229512;22;20160;-83
2022/01/30 04:06:19;;;;;;;3.60;1.73;;;18.10;60.90;;;;;;6204176;22;20635;-81
2022/01/30 04:08:45;;;;;;;3.75;1.60;;;18.10;61.00;;;;;;6281870;22;20136;-81
2022/01/30 04:11:11;;;;;;;3.10;1.38;;;18.10;61.20;;;;;;6255743;22;20139;-81
2022/01/30 04:13:37;;;;;;;3.13;1.30;;;18.10;61.30;;;;;;6307986;22;20135;-83
2022/01/30 04:16:03;;;;;;;2.92;1.30;;;18.10;61.40;;;;;;6256116;22;20148;-83
2022/01/30 04:18:28;;;;;;;4.68;1.70;;;18.10;60.90;;;;;;6308299;22;20159;-82
2022/01/30 04:20:54;;;;;;;3.28;1.35;;;18.10;61.20;;;;;;6230187;22;20509;-82
2022/01/30 04:23:20;;;;;;;7.80;1.67;;;18.10;60.90;;;;;;6281372;22;20638;-80
2022/01/30 04:25:45;;;;;;;3.45;1.73;;;18.10;61.20;;;;;;6308233;22;20163;-83
2022/01/30 04:28:11;;;;;;;3.42;1.55;;;18.10;61.40;;;;;;6230894;22;20175;-82
2022/01/30 04:30:37;;;;;;;4.15;1.65;;;18.10;61.00;;;;;;6255835;22;20128;-81
2022/01/30 04:33:03;;;;;;;6.10;1.50;;;18.10;61.20;;;;;;6255540;22;20136;-83
2022/01/30 04:35:30;;;;;;;3.92;1.40;;;18.10;61.20;;;;;;6281315;22;20493;-84
2022/01/30 04:38:08;;;;;;;3.33;1.40;;;18.10;61.00;;;;;;6255611;22;20189;-81
2022/01/30 04:40:59;;;;;;;5.53;1.52;;;18.10;60.80;;;;;;6235254;22;20197;-83
2022/01/30 05:02:23;;;;;;;3.47;1.30;;;18.00;61.00;;;;;;6219227;23;20154;-82
2022/01/30 05:05:22;;;;;;;4.35;1.55;;;18.10;60.80;;;;;;6216356;22;20162;-83
2022/01/30 05:07:37;;;;;;;3.95;1.27;;;18.00;60.90;;;;;;6237504;22;20255;-83
2022/01/30 05:10:03;;;;;;;2.95;1.30;;;18.00;60.70;;;;;;6252048;22;20391;-81
2022/01/30 05:12:36;;;;;;;3.53;1.38;;;18.10;60.70;;;;;;6151779;23;20135;-81
2022/01/30 05:15:02;;;;;;;4.95;1.80;;;18.10;61.00;;;;;;6224353;22;20218;-84
2022/01/30 05:17:27;;;;;;;4.03;1.35;;;18.10;61.20;;;;;;6253992;22;20571;-82
2022/01/30 05:19:53;;;;;;;4.07;1.40;;;18.10;60.80;;;;;;6228945;22;20154;-82
2022/01/30 05:22:19;;;;;;;3.83;1.45;;;18.00;61.20;;;;;;6151808;22;20136;-83
2022/01/30 05:24:46;;;;;;;4.55;1.50;;;18.00;61.10;;;;;;6228690;22;20140;-84
2022/01/30 05:27:12;;;;;;;3.47;1.60;;;18.00;61.20;;;;;;6254445;22;20221;-81
2022/01/30 05:29:37;;;;;;;3.13;1.40;;;18.00;61.20;;;;;;6203727;22;20482;-81
2022/01/30 05:32:04;;;;;;;4.13;1.77;;;18.00;61.10;;;;;;6254350;22;20136;-82
2022/01/30 05:34:30;;;;;;;3.20;1.30;;;18.00;60.70;;;;;;6204584;22;20140;-82
2022/01/30 05:36:56;;;;;;;4.93;1.50;;;18.00;60.60;;;;;;6229499;22;20148;-82
2022/01/30 05:39:24;;;;;;;3.08;1.40;;;18.00;60.90;;;;;;6253854;22;20578;-83
2022/01/30 05:41:52;;;;;;;2.72;1.20;;;18.00;60.80;;;;;;6153239;23;20165;-81
2022/01/30 05:44:22;;;;;;;4.80;1.40;;;18.00;61.10;;;;;;6202887;22;20610;-81
2022/01/30 05:46:54;;;;;;;4.38;1.67;;;18.00;60.60;;;;;;6201290;23;20179;-83
2022/01/30 05:49:21;;;;;;;3.05;1.10;;;18.00;60.60;;;;;;6155825;22;20205;-81
2022/01/30 05:51:47;;;;;;;2.88;1.33;;;18.00;60.30;;;;;;6177832;23;20662;-82
2022/01/30 05:54:13;;;;;;;5.00;1.50;;;18.00;60.50;;;;;;6228605;23;20164;-83
2022/01/30 05:56:38;;;;;;;4.90;1.40;;;18.00;60.60;;;;;;6254590;22;20136;-82
2022/01/30 05:59:04;;;;;;;3.78;1.38;;;18.00;60.70;;;;;;6254290;22;20140;-81
2022/01/30 06:01:30;;;;;;;3.63;1.50;;;18.10;60.30;;;;;;6228051;22;20203;-81
2022/01/30 06:03:56;;;;;;;2.83;1.30;;;18.00;60.50;;;;;;6198794;23;20152;-81
2022/01/30 06:06:22;;;;;;;3.83;1.40;;;18.10;60.50;;;;;;6173706;23;20176;-82
2022/01/30 06:11:27;;;;;;;3.95;1.67;;;18.00;60.50;;;;;;6189804;23;20544;-83
2022/01/30 06:13:52;;;;;;;2.35;1.15;;;18.00;60.30;;;;;;6198056;23;20149;-81
2022/01/30 06:16:21;;;;;;;3.10;1.25;;;18.00;60.20;;;;;;6121902;23;20137;-82
2022/01/30 06:18:47;;;;;;;2.90;1.13;;;18.10;60.50;;;;;;6198844;23;20137;-83
2022/01/30 06:21:12;;;;;;;4.40;1.38;;;18.10;60.70;;;;;;6223501;23;20144;-83
2022/01/30 06:23:40;;;;;;;3.58;1.23;;;18.00;60.60;;;;;;6198953;23;20133;-82
2022/01/30 06:26:05;;;;;;;5.07;1.38;;;18.00;60.50;;;;;;6200048;23;20177;-82
2022/01/30 06:28:31;;;;;;;3.13;1.20;;;18.00;60.10;;;;;;6224028;23;20181;-82
2022/01/30 06:30:57;;;;;;;2.85;1.23;;;18.10;60.50;;;;;;6198347;23;20201;-83
2022/01/30 06:33:23;;;;;;;3.28;1.45;;;18.00;60.70;;;;;;6224230;23;20518;-81
2022/01/30 06:35:50;;;;;;;3.60;1.63;;;18.00;60.90;;;;;;6121724;23;20136;-81
2022/01/30 06:38:16;;;;;;;2.53;1.30;;;18.00;60.60;;;;;;6148250;23;20475;-83
2022/01/30 06:40:41;;;;;;;3.53;1.23;;;18.00;60.50;;;;;;6224911;23;20219;-81
2022/01/30 06:43:07;;;;;;;3.60;1.42;;;18.00;60.70;;;;;;6225364;23;20155;-83
2022/01/30 06:45:34;;;;;;;4.07;1.30;;;18.10;60.30;;;;;;6199963;23;20156;-81
2022/01/30 06:48:00;;;;;;;4.00;1.27;;;18.00;60.50;;;;;;6223698;23;20194;-86
2022/01/30 06:50:26;;;;;;;4.03;1.27;;;18.10;60.20;;;;;;6200523;23;20132;-81
2022/01/30 06:52:51;;;;;;;5.60;1.58;;;18.00;60.00;;;;;;6200789;23;20152;-84
2022/01/30 06:55:17;;;;;;;2.83;1.30;;;18.00;59.90;;;;;;6175037;23;20235;-82
2022/01/30 06:57:44;;;;;;;3.38;1.63;;;18.00;59.90;;;;;;6225336;23;20220;-84
2022/01/30 07:00:10;;;;;;;2.03;1.20;;;18.10;60.30;;;;;;6224590;22;20563;-81
2022/01/30 07:02:36;;;;;;;2.53;1.13;;;18.10;60.90;;;;;;6200069;23;20189;-83
2022/01/30 07:05:01;;;;;;;2.78;1.30;;;18.10;60.00;;;;;;6199931;23;20215;-82
2022/01/30 07:07:27;;;;;;;3.00;1.20;;;18.00;60.40;;;;;;6199953;23;20615;-84
2022/01/30 07:09:52;;;;;;;3.88;1.40;;;18.00;60.00;;;;;;6175110;23;20577;-82
2022/01/30 07:12:19;;;;;;;4.70;1.20;;;18.00;60.00;;;;;;6200114;23;20156;-82
2022/01/30 07:14:46;;;;;;;5.85;1.40;;;18.00;60.10;;;;;;6149356;23;20250;-81
2022/01/30 07:17:12;;;;;;;3.60;1.30;;;18.00;59.80;;;;;;6124756;23;20160;-81
2022/01/30 07:19:40;;;;;;;2.85;1.35;;;18.00;59.90;;;;;;6175862;23;20452;-83
2022/01/30 07:22:07;;;;;;;2.53;1.20;;;18.00;59.80;;;;;;6200280;23;20149;-81
2022/01/30 07:24:33;;;;;;;3.67;1.55;;;17.90;59.70;;;;;;6225312;23;20136;-83
2022/01/30 07:26:59;;;;;;;3.70;1.40;;;18.00;59.70;;;;;;6224973;23;20280;-82
2022/01/30 07:29:25;;;;;;;2.85;1.40;;;18.00;59.70;;;;;;6200095;23;20235;-82
2022/01/30 07:31:51;;;;;;;2.78;1.00;;;18.10;59.90;;;;;;6123222;23;20136;-83
2022/01/30 07:34:20;;;;;;;3.97;1.60;;;18.00;60.00;;;;;;6199780;23;20148;-83
2022/01/30 07:36:46;;;;;;;1.63;1.13;;;18.00;59.90;;;;;;6225942;23;20287;-81
2022/01/30 07:39:15;;;;;;;2.08;1.00;;;18.00;59.80;;;;;;6224348;23;20174;-83
2022/01/30 07:41:41;;;;;;;2.53;1.20;;;18.00;59.90;;;;;;6200325;23;20152;-83
2022/01/30 07:44:07;;;;;;;3.05;1.25;;;18.00;60.50;;;;;;6225197;23;20511;-82
2022/01/30 07:46:32;;;;;;;2.50;1.23;;;17.90;60.60;;;;;;6123953;23;20172;-83
2022/01/30 07:48:58;;;;;;;4.07;1.35;;;18.00;60.50;;;;;;6226183;23;20168;-84
2022/01/30 07:51:24;;;;;;;3.03;1.17;;;17.90;60.30;;;;;;6199837;23;20133;-83
2022/01/30 07:53:49;;;;;;;3.38;1.20;;;18.00;60.30;;;;;;6199128;23;20160;-83
2022/01/30 07:56:15;;;;;;;3.50;1.20;;;18.10;60.30;;;;;;6174369;23;20172;-80
2022/01/30 07:58:41;;;;;;;2.95;1.42;;;18.00;60.00;;;;;;6225102;23;20223;-81
2022/01/30 08:01:06;;;;;;;4.45;1.48;;;18.10;60.20;;;;;;6199298;23;20196;-81
2022/01/30 08:03:32;;;;;;;2.72;1.27;;;18.10;60.00;;;;;;6175734;23;20148;-81
2022/01/30 08:05:58;;;;;;;5.70;1.20;;;18.10;59.80;;;;;;6200966;23;20183;-83
2022/01/30 08:08:25;;;;;;;2.70;1.00;;;18.10;59.50;;;;;;6199437;23;20133;-81
2022/01/30 08:10:51;;;;;;;3.55;1.40;;;18.10;59.50;;;;;;6173859;23;20191;-82
2022/01/30 08:13:17;;;;;;;4.45;1.20;;;18.10;59.50;;;;;;6225130;23;20195;-84
2022/01/30 08:15:44;;;;;;;3.65;1.10;;;18.20;59.60;;;;;;6202924;23;20232;-83
2022/01/30 08:18:09;;;;;;;4.72;1.35;;;18.20;59.30;;;;;;6175963;23;20505;-82
2022/01/30 08:20:35;;;;;;;4.05;1.10;;;18.30;59.60;;;;;;6198991;23;20591;-84
2022/01/30 08:23:06;;;;;;;5.22;1.10;;;18.30;59.40;;;;;;6225021;23;20133;-83
2022/01/30 08:25:32;;;;;;;6.80;1.35;;;18.30;59.30;;;;;;6195072;23;20436;-84
2022/01/30 08:27:58;;;;;;;8.48;1.42;;;18.30;59.20;;;;;;6123081;23;20157;-81
2022/01/30 08:30:23;;;;;;;5.90;1.13;;;18.30;58.90;;;;;;6224820;23;20228;-82
2022/01/30 08:32:50;;;;;;;2.92;1.20;;;18.40;58.90;;;;;;6123189;23;20216;-83
2022/01/30 08:35:16;;;;;;;3.13;0.90;;;18.40;58.90;;;;;;6199484;23;20147;-83
2022/01/30 08:37:42;;;;;;;4.10;1.70;;;18.40;58.80;;;;;;6223993;23;20146;-83
2022/01/30 08:40:09;;;;;;;3.20;1.40;;;18.40;58.90;;;;;;6175609;23;20175;-83
2022/01/30 08:42:35;;;;;;;6.88;1.40;;;18.40;58.40;;;;;;6199864;23;20145;-82
2022/01/30 08:45:01;;;;;;;3.08;1.00;;;18.40;58.50;;;;;;6199166;23;20467;-82
2022/01/30 08:47:28;;;;;;;4.13;1.23;;;18.50;58.60;;;;;;6174214;23;20171;-82
2022/01/30 08:49:55;;;;;;;4.78;1.20;;;18.50;58.30;;;;;;6123149;23;20583;-81
2022/01/30 08:52:23;;;;;;;6.32;1.27;;;18.50;58.30;;;;;;6146982;23;20211;-82
2022/01/30 08:54:50;;;;;;;4.78;0.98;;;18.60;58.10;;;;;;6171853;23;20160;-82
2022/01/30 08:57:17;;;;;;;4.75;1.23;;;18.60;58.00;;;;;;6123947;23;20164;-84
2022/01/30 08:59:53;;;;;;;4.97;1.35;;;18.60;58.00;;;;;;6168171;22;20235;-84
2022/01/30 09:02:20;;;;;;;8.50;1.42;;;18.60;58.30;;;;;;6256064;22;20218;-86
2022/01/30 09:04:46;;;;;;;5.30;1.52;;;18.70;57.90;;;;;;6228874;22;20148;-82
2022/01/30 09:07:21;;;;;;;8.48;1.17;;;18.70;58.10;;;;;;6256643;22;20182;-83
2022/01/30 09:09:47;;;;;;;9.43;1.48;;;18.70;58.50;;;;;;6206952;22;20190;-84
2022/01/30 09:12:14;;;;;;;6.97;1.52;;;18.70;57.90;;;;;;6258875;22;20136;-85
2022/01/30 09:14:41;;;;;;;4.97;1.17;;;18.70;57.60;;;;;;6231790;22;20475;-85
2022/01/30 09:17:12;;;;;;;5.25;1.10;;;18.70;57.90;;;;;;6285143;22;20132;-85
2022/01/30 09:19:40;;;;;;;3.38;1.02;;;18.70;57.60;;;;;;6257674;22;20171;-84
2022/01/30 09:22:14;;;;;;;3.83;1.20;;;18.80;57.70;;;;;;6256352;22;20219;-85
2022/01/30 09:24:45;;;;;;;2.97;0.90;;;18.80;57.80;;;;;;6222022;23;20173;-85
2022/01/30 09:27:13;;;;;;;5.55;1.23;;;18.80;57.70;;;;;;6197949;23;20184;-83
2022/01/30 09:29:42;;;;;;;5.18;0.95;;;18.90;57.80;;;;;;6196177;23;20206;-85
2022/01/30 09:32:10;;;;;;;5.00;1.10;;;18.90;57.50;;;;;;6174203;23;20153;-85
2022/01/30 09:34:37;;;;;;;6.78;1.52;;;18.80;57.30;;;;;;6198274;23;20576;-84
2022/01/30 09:37:05;;;;;;;8.05;1.98;;;18.80;57.80;;;;;;6169324;23;20157;-84
2022/01/30 09:39:33;;;;;;;6.22;1.30;;;18.70;57.90;;;;;;6172705;23;20149;-85
2022/01/30 09:41:59;;;;;;;3.90;1.00;;;18.80;58.20;;;;;;6199256;23;20141;-85
2022/01/30 09:44:27;;;;;;;5.18;1.40;;;18.80;58.20;;;;;;6202981;23;20149;-87
2022/01/30 09:46:52;;;;;;;5.45;1.27;;;18.80;58.20;;;;;;6177712;23;20165;-86
2022/01/30 09:49:22;;;;;;;7.80;1.10;;;18.70;57.80;;;;;;6235781;22;20148;-86
2022/01/30 09:51:49;;;;;;;4.07;0.98;;;18.80;57.70;;;;;;6266324;22;20246;-87
2022/01/30 09:54:16;;;;;;;6.40;1.33;;;18.70;57.50;;;;;;6242794;22;20213;-84
2022/01/30 09:56:52;;;;;;;5.80;0.90;;;18.80;57.60;;;;;;6265821;22;20197;-86
2022/01/30 09:59:17;;;;;;;2.70;0.90;;;18.80;57.80;;;;;;6224879;23;20153;-86
2022/01/30 10:01:48;;;;;;;4.20;1.10;;;18.90;57.70;;;;;;6219091;23;20204;-84
2022/01/30 10:04:16;;;;;;;2.55;1.10;;;18.80;58.50;;;;;;6219062;23;20172;-83
2022/01/30 10:06:57;;;;;;;4.25;1.08;;;18.80;58.50;;;;;;6194758;23;20635;-84
2022/01/30 10:09:29;;;;;;;6.15;1.27;;;18.80;58.00;;;;;;6220970;23;20240;-85
2022/01/30 10:12:14;;;;;;;7.20;1.80;;;18.80;57.50;;;;;;6219759;23;20188;-84
2022/01/30 10:14:52;;;;;;;5.78;1.27;;;18.80;58.00;;;;;;6221335;23;20589;-83
2022/01/30 10:17:27;;;;;;;5.40;1.10;;;18.80;57.30;;;;;;6222525;23;20439;-86
2022/01/30 10:20:06;;;;;;;2.95;1.00;;;18.80;58.70;;;;;;6222833;23;20212;-84
2022/01/30 10:22:32;;;;;;;3.90;1.00;;;18.70;57.80;;;;;;6247491;23;20488;-86
2022/01/30 10:24:59;;;;;;;2.25;0.90;;;18.80;58.50;;;;;;6283023;22;20650;-84
2022/01/30 10:27:27;;;;;;;4.38;1.35;;;18.80;58.50;;;;;;6233496;22;20622;-83
2022/01/30 10:29:57;;;;;;;3.40;1.10;;;18.70;58.30;;;;;;6234309;22;20479;-83
2022/01/30 10:32:24;;;;;;;6.28;1.40;;;18.80;59.10;;;;;;6259466;22;20452;-82
2022/01/30 10:35:02;;;;;;;4.18;1.13;;;18.80;58.00;;;;;;6232941;22;20140;-83
2022/01/30 10:37:32;;;;;;;3.38;1.10;;;18.80;57.60;;;;;;6232960;22;20151;-84
2022/01/30 10:40:09;;;;;;;2.80;1.20;;;18.80;58.10;;;;;;6232048;22;20151;-86
2022/01/30 10:42:43;;;;;;;4.50;1.00;;;18.80;58.30;;;;;;6208012;22;20162;-83
2022/01/30 10:45:29;;;;;;;3.65;0.80;;;18.80;58.20;;;;;;6232034;22;20155;-83
2022/01/30 10:48:11;;;;;;;5.18;0.95;;;18.80;58.20;;;;;;6233815;22;20182;-84
2022/01/30 10:50:43;;;;;;;4.60;1.02;;;18.80;57.50;;;;;;6231925;22;20225;-81
2022/01/30 10:53:21;;;;;;;3.33;0.98;;;18.80;57.90;;;;;;6233279;22;20148;-84
2022/01/30 10:55:51;;;;;;;4.28;0.93;;;18.80;57.90;;;;;;6233868;22;20193;-82
2022/01/30 10:58:21;;;;;;;6.95;1.30;;;18.80;58.30;;;;;;6232239;22;20148;-82
2022/01/30 11:00:50;;;;;;;3.38;1.08;;;18.80;58.40;;;;;;6207605;22;20188;-84
2022/01/30 11:03:38;;;;;;;7.18;1.30;;;18.80;58.90;;;;;;6257021;22;20148;-85
2022/01/30 11:06:09;;;;;;;5.25;1.17;;;18.80;58.50;;;;;;6282485;22;20255;-84
2022/01/30 11:08:39;;;;;;;3.97;0.93;;;18.70;58.30;;;;;;6231731;22;20289;-85
2022/01/30 11:11:32;;;;;;;3.05;1.20;;;18.80;58.30;;;;;;6210187;22;20591;-84
2022/01/30 11:14:20;;;;;;;5.63;0.85;;;18.80;57.90;;;;;;6246689;22;20225;-83
2022/01/30 11:19:23;;;;;;;4.97;1.05;;;18.80;58.30;;;;;;6264431;22;20245;-85
2022/01/30 11:21:51;;;;;;;3.38;1.25;;;18.80;58.80;;;;;;6260025;22;20156;-83
2022/01/30 11:24:19;;;;;;;5.10;1.15;;;18.80;58.60;;;;;;6261150;22;20132;-83
2022/01/30 11:26:47;;;;;;;3.97;1.05;;;18.80;58.60;;;;;;6259383;22;20252;-85
2022/01/30 11:29:20;;;;;;;4.38;1.08;;;18.80;58.50;;;;;;6209474;22;20152;-84
2022/01/30 11:31:47;;;;;;;3.58;1.10;;;18.80;58.30;;;;;;6210177;22;20171;-83
2022/01/30 11:34:13;;;;;;;3.33;1.10;;;18.80;58.40;;;;;;6233084;22;20155;-83
2022/01/30 11:36:40;;;;;;;3.42;1.13;;;18.80;58.70;;;;;;6233678;22;20167;-82
2022/01/30 11:39:07;;;;;;;2.53;1.00;;;18.80;58.80;;;;;;6285363;22;20581;-84
2022/01/30 11:41:34;;;;;;;3.58;1.13;;;18.80;58.80;;;;;;6234128;22;20197;-80
2022/01/30 11:44:26;;;;;;;4.25;1.30;;;18.80;58.70;;;;;;6259536;22;20144;-85
2022/01/30 11:47:16;;;;;;;3.10;1.05;;;18.80;58.90;;;;;;6258319;22;20172;-84
2022/01/30 11:49:48;;;;;;;4.28;1.15;;;18.80;58.10;;;;;;6263937;22;20129;-84
2022/01/30 11:52:20;;;;;;;3.08;1.40;;;18.90;59.10;;;;;;6234339;22;20144;-82
2022/01/30 11:54:47;;;;;;;4.53;1.23;;;18.80;58.70;;;;;;6207627;22;20155;-84
2022/01/30 11:57:51;;;;;;;7.03;1.27;;;18.80;59.10;;;;;;6258825;22;20140;-81
2022/01/30 12:00:37;;;;;;;3.65;1.20;;;18.80;58.60;;;;;;6205570;23;20664;-83
2022/01/30 12:03:23;;;;;;;7.32;1.40;;;18.80;58.80;;;;;;6258344;22;20407;-82
2022/01/30 12:05:51;;;;;;;2.78;1.00;;;18.80;58.40;;;;;;6154396;23;20570;-82
2022/01/30 12:08:45;;;;;;;5.80;1.20;;;18.80;58.50;;;;;;6206923;22;20182;-81
2022/01/30 12:11:51;;;;;;;4.85;1.20;;;18.80;58.30;;;;;;6229871;23;20151;-85
2022/01/30 12:14:44;;;;;;;2.88;1.23;;;18.80;58.60;;;;;;6238801;22;20128;-83
2022/01/30 12:17:09;;;;;;;5.05;1.45;;;18.80;57.30;;;;;;6236571;22;20555;-82
2022/01/30 12:19:59;;;;;;;2.85;1.17;;;18.90;58.20;;;;;;6255508;22;20136;-82
2022/01/30 12:22:41;;;;;;;2.03;0.90;;;18.80;57.70;;;;;;6235637;22;20218;-84
2022/01/30 12:25:23;;;;;;;1.80;0.90;;;18.90;57.90;;;;;;6255090;22;20136;-85
2022/01/30 12:27:51;;;;;;;4.50;1.17;;;18.90;58.00;;;;;;6152051;23;20591;-85
2022/01/30 12:30:32;;;;;;;3.90;1.00;;;18.90;57.80;;;;;;6203899;22;20476;-81
2022/01/30 12:32:58;;;;;;;4.43;1.00;;;18.90;57.40;;;;;;6254524;22;20226;-83
2022/01/30 12:35:24;;;;;;;2.22;0.82;;;18.90;57.80;;;;;;6230410;22;20197;-83
2022/01/30 12:37:49;;;;;;;6.30;1.20;;;18.90;57.80;;;;;;6255608;22;20227;-82
2022/01/30 12:40:18;;;;;;;2.95;1.02;;;18.90;57.80;;;;;;6205654;22;20155;-80
2022/01/30 12:42:44;;;;;;;2.50;0.90;;;18.80;57.30;;;;;;6254444;22;20155;-82
2022/01/30 12:45:10;;;;;;;3.05;1.02;;;18.90;57.60;;;;;;6253463;22;20163;-83
2022/01/30 12:47:52;;;;;;;5.65;1.23;;;18.90;57.70;;;;;;6229807;22;20174;-84
2022/01/30 12:50:20;;;;;;;2.42;0.90;;;18.90;57.70;;;;;;6230390;23;20151;-83
2022/01/30 12:52:49;;;;;;;4.70;1.00;;;18.90;57.50;;;;;;6228917;22;20136;-82
2022/01/30 12:55:20;;;;;;;3.55;1.20;;;18.90;57.80;;;;;;6204614;22;20147;-85
2022/01/30 12:57:47;;;;;;;2.83;1.00;;;18.90;57.70;;;;;;6204969;22;20242;-82
2022/01/30 13:00:19;;;;;;;2.28;1.10;;;18.90;57.70;;;;;;6194367;23;20301;-80
2022/01/30 13:02:56;;;;;;;3.03;0.90;;;18.90;57.80;;;;;;6148941;23;20184;-84
2022/01/30 13:05:22;;;;;;;2.53;0.98;;;18.90;57.30;;;;;;6148939;23;20215;-82
2022/01/30 13:07:55;;;;;;;4.18;1.00;;;19.00;57.40;;;;;;6198501;23;20223;-82
2022/01/30 13:10:21;;;;;;;6.47;1.08;;;19.00;57.20;;;;;;6199548;23;20132;-85
2022/01/30 13:12:48;;;;;;;3.80;0.90;;;18.90;57.80;;;;;;6199016;23;20138;-84
2022/01/30 13:15:22;;;;;;;2.20;0.80;;;19.00;58.10;;;;;;6148663;23;20160;-84
2022/01/30 13:17:50;;;;;;;4.03;1.00;;;18.80;57.90;;;;;;6171838;23;20160;-82
2022/01/30 13:20:21;;;;;;;2.83;0.90;;;18.90;58.20;;;;;;6124402;23;20264;-83
2022/01/30 13:22:49;;;;;;;1.52;0.82;;;18.90;57.40;;;;;;6150333;23;20196;-85
2022/01/30 13:25:15;;;;;;;3.28;1.13;;;18.90;57.80;;;;;;6124643;23;20229;-83
2022/01/30 13:27:44;;;;;;;2.33;1.10;;;19.00;57.90;;;;;;6223612;23;20199;-83
2022/01/30 13:30:10;;;;;;;5.53;1.05;;;19.00;57.90;;;;;;6200148;23;20247;-83
2022/01/30 13:32:38;;;;;;;2.55;0.80;;;19.00;58.10;;;;;;6197387;23;20163;-82
2022/01/30 13:35:12;;;;;;;3.72;1.00;;;18.90;58.10;;;;;;6198600;23;20170;-84
2022/01/30 13:37:38;;;;;;;1.77;0.90;;;18.90;58.20;;;;;;6149344;23;20194;-85
2022/01/30 13:40:10;;;;;;;3.53;0.98;;;18.90;57.90;;;;;;6173782;23;20297;-83
2022/01/30 13:42:46;;;;;;;1.13;0.55;;;19.00;58.10;;;;;;6220114;23;20171;-82
2022/01/30 13:48:21;;;;;;;2.90;1.13;;;19.00;58.00;;;;;;6172887;23;20606;-83